sensor_id;sensor_type;location;lat;lon;timestamp;P1;durP1;ratioP1;P2;durP2;ratioP2
19043;SDS011;9654;52.302;8.120;2023-12-20T00:01:07;15.37;;;4.83;;
19043;SDS011;9654;52.302;8.120;2023-12-20T00:03:34;12.53;;;4.87;;
19043;SDS011;9654;52.302;8.120;2023-12-20T00:06:01;19.83;;;5.87;;
19043;SDS011;9654;52.302;8.120;2023-12-20T00:08:28;25.77;;;9.17;;
19043;SDS011;9654;52.302;8.120;2023-12-20T00:10:56;23.50;;;5.47;;
19043;SDS011;9654;52.302;8.120;2023-12-20T00:13:24;12.13;;;4.03;;
19043;SDS011;9654;52.302;8.120;2023-12-20T00:15:51;23.93;;;5.97;;
19043;SDS011;9654;52.302;8.120;2023-12-20T00:18:18;17.33;;;4.60;;
19043;SDS011;9654;52.302;8.120;2023-12-20T00:20:45;13.17;;;3.63;;
19043;SDS011;9654;52.302;8.120;2023-12-20T00:23:12;12.67;;;3.77;;
19043;SDS011;9654;52.302;8.120;2023-12-20T00:25:39;8.60;;;3.47;;
19043;SDS011;9654;52.302;8.120;2023-12-20T00:28:07;11.30;;;3.10;;
19043;SDS011;9654;52.302;8.120;2023-12-20T00:30:34;9.07;;;2.73;;
19043;SDS011;9654;52.302;8.120;2023-12-20T00:33:01;16.53;;;3.97;;
19043;SDS011;9654;52.302;8.120;2023-12-20T00:35:28;12.13;;;2.80;;
19043;SDS011;9654;52.302;8.120;2023-12-20T00:37:55;23.20;;;3.90;;
19043;SDS011;9654;52.302;8.120;2023-12-20T00:40:22;12.30;;;3.00;;
19043;SDS011;9654;52.302;8.120;2023-12-20T00:42:50;9.73;;;3.03;;
19043;SDS011;9654;52.302;8.120;2023-12-20T00:45:18;9.73;;;2.93;;
19043;SDS011;9654;52.302;8.120;2023-12-20T00:47:45;11.73;;;3.57;;
19043;SDS011;9654;52.302;8.120;2023-12-20T00:50:12;8.00;;;3.03;;
19043;SDS011;9654;52.302;8.120;2023-12-20T00:52:38;9.80;;;3.40;;
19043;SDS011;9654;52.302;8.120;2023-12-20T00:55:06;12.27;;;3.60;;
19043;SDS011;9654;52.302;8.120;2023-12-20T00:57:33;6.53;;;3.17;;
19043;SDS011;9654;52.302;8.120;2023-12-20T01:00:00;12.47;;;3.37;;
19043;SDS011;9654;52.302;8.120;2023-12-20T01:02:28;14.17;;;3.47;;
19043;SDS011;9654;52.302;8.120;2023-12-20T01:04:55;13.40;;;3.33;;
19043;SDS011;9654;52.302;8.120;2023-12-20T01:07:22;9.77;;;3.17;;
19043;SDS011;9654;52.302;8.120;2023-12-20T01:09:49;7.50;;;3.10;;
19043;SDS011;9654;52.302;8.120;2023-12-20T01:12:16;15.87;;;6.33;;
19043;SDS011;9654;52.302;8.120;2023-12-20T01:14:43;13.73;;;3.87;;
19043;SDS011;9654;52.302;8.120;2023-12-20T01:17:11;13.07;;;3.83;;
19043;SDS011;9654;52.302;8.120;2023-12-20T01:19:40;12.13;;;2.90;;
19043;SDS011;9654;52.302;8.120;2023-12-20T01:22:07;15.27;;;4.43;;
19043;SDS011;9654;52.302;8.120;2023-12-20T01:24:34;20.93;;;3.57;;
19043;SDS011;9654;52.302;8.120;2023-12-20T01:30:04;14.60;;;3.50;;
19043;SDS011;9654;52.302;8.120;2023-12-20T01:32:31;17.57;;;3.70;;
19043;SDS011;9654;52.302;8.120;2023-12-20T01:34:59;15.20;;;4.10;;
19043;SDS011;9654;52.302;8.120;2023-12-20T01:37:26;14.43;;;4.70;;
19043;SDS011;9654;52.302;8.120;2023-12-20T01:39:54;11.07;;;3.87;;
19043;SDS011;9654;52.302;8.120;2023-12-20T01:42:21;7.30;;;3.47;;
19043;SDS011;9654;52.302;8.120;2023-12-20T01:44:48;12.20;;;4.40;;
19043;SDS011;9654;52.302;8.120;2023-12-20T01:47:15;16.07;;;4.00;;
19043;SDS011;9654;52.302;8.120;2023-12-20T01:49:42;15.50;;;4.33;;
19043;SDS011;9654;52.302;8.120;2023-12-20T01:52:11;17.07;;;4.30;;
19043;SDS011;9654;52.302;8.120;2023-12-20T01:54:39;15.00;;;4.40;;
19043;SDS011;9654;52.302;8.120;2023-12-20T01:57:07;18.03;;;4.10;;
19043;SDS011;9654;52.302;8.120;2023-12-20T01:59:35;11.50;;;4.40;;
19043;SDS011;9654;52.302;8.120;2023-12-20T02:02:02;13.10;;;4.70;;
19043;SDS011;9654;52.302;8.120;2023-12-20T02:04:29;18.03;;;4.20;;
19043;SDS011;9654;52.302;8.120;2023-12-20T02:06:56;19.87;;;5.00;;
19043;SDS011;9654;52.302;8.120;2023-12-20T02:09:26;16.73;;;5.00;;
19043;SDS011;9654;52.302;8.120;2023-12-20T02:11:53;13.47;;;4.00;;
19043;SDS011;9654;52.302;8.120;2023-12-20T02:14:20;12.97;;;4.50;;
19043;SDS011;9654;52.302;8.120;2023-12-20T02:16:47;15.40;;;3.97;;
19043;SDS011;9654;52.302;8.120;2023-12-20T02:19:14;15.33;;;3.43;;
19043;SDS011;9654;52.302;8.120;2023-12-20T02:21:45;23.23;;;4.00;;
19043;SDS011;9654;52.302;8.120;2023-12-20T02:24:11;16.87;;;4.00;;
19043;SDS011;9654;52.302;8.120;2023-12-20T02:26:38;8.80;;;3.30;;
19043;SDS011;9654;52.302;8.120;2023-12-20T02:29:06;14.70;;;3.57;;
19043;SDS011;9654;52.302;8.120;2023-12-20T02:31:33;19.57;;;4.17;;
19043;SDS011;9654;52.302;8.120;2023-12-20T02:34:00;12.87;;;4.37;;
19043;SDS011;9654;52.302;8.120;2023-12-20T02:36:27;15.70;;;3.53;;
19043;SDS011;9654;52.302;8.120;2023-12-20T02:38:55;8.80;;;3.43;;
19043;SDS011;9654;52.302;8.120;2023-12-20T02:41:22;10.30;;;3.87;;
19043;SDS011;9654;52.302;8.120;2023-12-20T02:43:48;21.03;;;4.63;;
19043;SDS011;9654;52.302;8.120;2023-12-20T02:46:15;22.27;;;4.20;;
19043;SDS011;9654;52.302;8.120;2023-12-20T02:48:43;15.87;;;4.40;;
19043;SDS011;9654;52.302;8.120;2023-12-20T02:51:10;16.20;;;4.50;;
19043;SDS011;9654;52.302;8.120;2023-12-20T02:53:36;19.27;;;5.93;;
19043;SDS011;9654;52.302;8.120;2023-12-20T02:56:06;18.93;;;4.93;;
19043;SDS011;9654;52.302;8.120;2023-12-20T02:58:33;12.57;;;4.80;;
19043;SDS011;9654;52.302;8.120;2023-12-20T03:01:00;17.57;;;5.60;;
19043;SDS011;9654;52.302;8.120;2023-12-20T03:03:26;18.10;;;4.90;;
19043;SDS011;9654;52.302;8.120;2023-12-20T03:05:53;14.93;;;4.40;;
19043;SDS011;9654;52.302;8.120;2023-12-20T03:08:20;14.20;;;4.63;;
19043;SDS011;9654;52.302;8.120;2023-12-20T03:10:47;14.97;;;5.27;;
19043;SDS011;9654;52.302;8.120;2023-12-20T03:13:15;25.17;;;7.20;;
19043;SDS011;9654;52.302;8.120;2023-12-20T03:15:42;15.93;;;5.13;;
19043;SDS011;9654;52.302;8.120;2023-12-20T03:18:09;20.53;;;5.97;;
19043;SDS011;9654;52.302;8.120;2023-12-20T03:20:36;18.47;;;5.13;;
19043;SDS011;9654;52.302;8.120;2023-12-20T03:23:03;21.67;;;5.60;;
19043;SDS011;9654;52.302;8.120;2023-12-20T03:25:30;22.70;;;5.80;;
19043;SDS011;9654;52.302;8.120;2023-12-20T03:27:57;25.90;;;5.50;;
19043;SDS011;9654;52.302;8.120;2023-12-20T03:30:25;17.43;;;4.73;;
19043;SDS011;9654;52.302;8.120;2023-12-20T03:32:52;17.33;;;5.23;;
19043;SDS011;9654;52.302;8.120;2023-12-20T03:35:18;14.07;;;4.50;;
19043;SDS011;9654;52.302;8.120;2023-12-20T03:37:45;16.13;;;4.73;;
19043;SDS011;9654;52.302;8.120;2023-12-20T03:40:12;16.60;;;5.10;;
19043;SDS011;9654;52.302;8.120;2023-12-20T03:42:39;25.40;;;6.30;;
19043;SDS011;9654;52.302;8.120;2023-12-20T03:45:06;20.87;;;5.17;;
19043;SDS011;9654;52.302;8.120;2023-12-20T03:47:35;19.23;;;4.80;;
19043;SDS011;9654;52.302;8.120;2023-12-20T03:50:02;17.97;;;5.30;;
19043;SDS011;9654;52.302;8.120;2023-12-20T03:52:29;22.60;;;5.10;;
19043;SDS011;9654;52.302;8.120;2023-12-20T03:54:56;19.17;;;4.67;;
19043;SDS011;9654;52.302;8.120;2023-12-20T03:57:23;19.80;;;5.53;;
19043;SDS011;9654;52.302;8.120;2023-12-20T03:59:50;17.23;;;5.77;;
19043;SDS011;9654;52.302;8.120;2023-12-20T04:02:17;29.97;;;5.13;;
19043;SDS011;9654;52.302;8.120;2023-12-20T04:04:45;15.87;;;5.30;;
19043;SDS011;9654;52.302;8.120;2023-12-20T04:07:12;30.37;;;10.17;;
19043;SDS011;9654;52.302;8.120;2023-12-20T04:09:40;17.10;;;4.80;;
19043;SDS011;9654;52.302;8.120;2023-12-20T04:12:07;18.03;;;6.17;;
19043;SDS011;9654;52.302;8.120;2023-12-20T04:14:34;24.07;;;6.53;;
19043;SDS011;9654;52.302;8.120;2023-12-20T04:20:05;28.97;;;10.77;;
19043;SDS011;9654;52.302;8.120;2023-12-20T04:22:33;87.17;;;33.47;;
19043;SDS011;9654;52.302;8.120;2023-12-20T04:25:00;28.27;;;11.83;;
19043;SDS011;9654;52.302;8.120;2023-12-20T04:27:27;25.83;;;8.57;;
19043;SDS011;9654;52.302;8.120;2023-12-20T04:29:54;54.53;;;20.50;;
19043;SDS011;9654;52.302;8.120;2023-12-20T04:32:20;37.07;;;13.80;;
19043;SDS011;9654;52.302;8.120;2023-12-20T04:34:47;32.03;;;8.63;;
19043;SDS011;9654;52.302;8.120;2023-12-20T04:37:16;26.43;;;8.63;;
19043;SDS011;9654;52.302;8.120;2023-12-20T04:39:43;26.87;;;8.73;;
19043;SDS011;9654;52.302;8.120;2023-12-20T04:42:10;28.87;;;6.13;;
19043;SDS011;9654;52.302;8.120;2023-12-20T04:44:39;22.10;;;7.40;;
19043;SDS011;9654;52.302;8.120;2023-12-20T04:47:06;25.77;;;6.70;;
19043;SDS011;9654;52.302;8.120;2023-12-20T04:49:33;21.70;;;4.60;;
19043;SDS011;9654;52.302;8.120;2023-12-20T04:52:00;15.77;;;5.03;;
19043;SDS011;9654;52.302;8.120;2023-12-20T04:54:30;15.83;;;4.27;;
19043;SDS011;9654;52.302;8.120;2023-12-20T04:56:57;22.03;;;4.90;;
19043;SDS011;9654;52.302;8.120;2023-12-20T04:59:24;21.47;;;4.27;;
19043;SDS011;9654;52.302;8.120;2023-12-20T05:01:51;15.77;;;5.10;;
19043;SDS011;9654;52.302;8.120;2023-12-20T05:04:18;26.40;;;4.77;;
19043;SDS011;9654;52.302;8.120;2023-12-20T05:06:45;19.23;;;4.50;;
19043;SDS011;9654;52.302;8.120;2023-12-20T05:09:12;32.70;;;7.90;;
19043;SDS011;9654;52.302;8.120;2023-12-20T05:11:40;23.00;;;4.77;;
19043;SDS011;9654;52.302;8.120;2023-12-20T05:14:07;22.40;;;4.70;;
19043;SDS011;9654;52.302;8.120;2023-12-20T05:16:34;18.93;;;4.17;;
19043;SDS011;9654;52.302;8.120;2023-12-20T05:19:01;29.37;;;5.07;;
19043;SDS011;9654;52.302;8.120;2023-12-20T05:21:31;19.57;;;5.30;;
19043;SDS011;9654;52.302;8.120;2023-12-20T05:23:58;15.23;;;4.20;;
19043;SDS011;9654;52.302;8.120;2023-12-20T05:26:25;17.13;;;5.60;;
19043;SDS011;9654;52.302;8.120;2023-12-20T05:28:55;26.07;;;5.47;;
19043;SDS011;9654;52.302;8.120;2023-12-20T05:31:22;19.37;;;4.97;;
19043;SDS011;9654;52.302;8.120;2023-12-20T05:33:49;18.00;;;4.57;;
19043;SDS011;9654;52.302;8.120;2023-12-20T05:36:16;17.00;;;4.50;;
19043;SDS011;9654;52.302;8.120;2023-12-20T05:38:43;25.63;;;5.83;;
19043;SDS011;9654;52.302;8.120;2023-12-20T05:41:09;17.63;;;4.50;;
19043;SDS011;9654;52.302;8.120;2023-12-20T05:43:36;14.90;;;3.77;;
19043;SDS011;9654;52.302;8.120;2023-12-20T05:46:04;17.77;;;5.57;;
19043;SDS011;9654;52.302;8.120;2023-12-20T05:48:31;12.33;;;4.53;;
19043;SDS011;9654;52.302;8.120;2023-12-20T05:50:58;28.33;;;4.60;;
19043;SDS011;9654;52.302;8.120;2023-12-20T05:53:25;24.03;;;5.27;;
19043;SDS011;9654;52.302;8.120;2023-12-20T05:55:52;22.67;;;4.67;;
19043;SDS011;9654;52.302;8.120;2023-12-20T05:58:19;23.83;;;5.40;;
19043;SDS011;9654;52.302;8.120;2023-12-20T06:00:46;22.57;;;4.30;;
19043;SDS011;9654;52.302;8.120;2023-12-20T06:03:15;15.80;;;4.70;;
19043;SDS011;9654;52.302;8.120;2023-12-20T06:05:42;23.40;;;4.70;;
19043;SDS011;9654;52.302;8.120;2023-12-20T06:08:09;24.00;;;4.57;;
19043;SDS011;9654;52.302;8.120;2023-12-20T06:10:36;26.90;;;5.13;;
19043;SDS011;9654;52.302;8.120;2023-12-20T06:13:03;27.43;;;5.70;;
19043;SDS011;9654;52.302;8.120;2023-12-20T06:15:32;22.73;;;4.40;;
19043;SDS011;9654;52.302;8.120;2023-12-20T06:18:02;23.57;;;4.83;;
19043;SDS011;9654;52.302;8.120;2023-12-20T06:20:30;26.53;;;5.87;;
19043;SDS011;9654;52.302;8.120;2023-12-20T06:22:57;23.07;;;4.93;;
19043;SDS011;9654;52.302;8.120;2023-12-20T06:25:24;31.17;;;5.63;;
19043;SDS011;9654;52.302;8.120;2023-12-20T06:27:51;24.50;;;5.73;;
19043;SDS011;9654;52.302;8.120;2023-12-20T06:30:18;28.60;;;5.30;;
19043;SDS011;9654;52.302;8.120;2023-12-20T06:32:45;26.03;;;6.57;;
19043;SDS011;9654;52.302;8.120;2023-12-20T06:35:12;30.60;;;11.80;;
19043;SDS011;9654;52.302;8.120;2023-12-20T06:37:41;46.00;;;13.53;;
19043;SDS011;9654;52.302;8.120;2023-12-20T06:40:09;49.87;;;15.27;;
19043;SDS011;9654;52.302;8.120;2023-12-20T06:42:36;37.57;;;11.93;;
19043;SDS011;9654;52.302;8.120;2023-12-20T06:45:03;45.27;;;14.37;;
19043;SDS011;9654;52.302;8.120;2023-12-20T06:47:31;49.33;;;10.50;;
19043;SDS011;9654;52.302;8.120;2023-12-20T06:49:58;51.37;;;16.30;;
19043;SDS011;9654;52.302;8.120;2023-12-20T06:52:25;34.97;;;12.20;;
19043;SDS011;9654;52.302;8.120;2023-12-20T06:54:54;47.10;;;15.33;;
19043;SDS011;9654;52.302;8.120;2023-12-20T06:57:20;27.10;;;9.40;;
19043;SDS011;9654;52.302;8.120;2023-12-20T06:59:48;27.77;;;7.93;;
19043;SDS011;9654;52.302;8.120;2023-12-20T07:02:15;27.20;;;8.23;;
19043;SDS011;9654;52.302;8.120;2023-12-20T07:04:42;28.53;;;8.30;;
19043;SDS011;9654;52.302;8.120;2023-12-20T07:07:09;31.57;;;9.17;;
19043;SDS011;9654;52.302;8.120;2023-12-20T07:09:36;33.70;;;10.63;;
19043;SDS011;9654;52.302;8.120;2023-12-20T07:12:05;36.03;;;11.47;;
19043;SDS011;9654;52.302;8.120;2023-12-20T07:14:32;25.67;;;6.30;;
19043;SDS011;9654;52.302;8.120;2023-12-20T07:16:59;31.10;;;7.80;;
19043;SDS011;9654;52.302;8.120;2023-12-20T07:19:26;22.00;;;5.20;;
19043;SDS011;9654;52.302;8.120;2023-12-20T07:21:54;20.43;;;7.33;;
19043;SDS011;9654;52.302;8.120;2023-12-20T07:24:21;20.37;;;6.63;;
19043;SDS011;9654;52.302;8.120;2023-12-20T07:26:48;30.90;;;8.23;;
19043;SDS011;9654;52.302;8.120;2023-12-20T07:29:17;19.70;;;6.40;;
19043;SDS011;9654;52.302;8.120;2023-12-20T07:31:44;32.97;;;9.07;;
19043;SDS011;9654;52.302;8.120;2023-12-20T07:34:12;29.80;;;8.50;;
19043;SDS011;9654;52.302;8.120;2023-12-20T07:36:39;26.63;;;9.30;;
19043;SDS011;9654;52.302;8.120;2023-12-20T07:39:05;43.40;;;11.17;;
19043;SDS011;9654;52.302;8.120;2023-12-20T07:41:32;32.27;;;10.80;;
19043;SDS011;9654;52.302;8.120;2023-12-20T07:43:59;43.77;;;11.67;;
19043;SDS011;9654;52.302;8.120;2023-12-20T07:46:27;27.03;;;8.07;;
19043;SDS011;9654;52.302;8.120;2023-12-20T07:48:54;46.37;;;11.73;;
19043;SDS011;9654;52.302;8.120;2023-12-20T07:51:21;30.33;;;9.70;;
19043;SDS011;9654;52.302;8.120;2023-12-20T07:53:48;24.77;;;7.90;;
19043;SDS011;9654;52.302;8.120;2023-12-20T07:56:15;25.00;;;7.30;;
19043;SDS011;9654;52.302;8.120;2023-12-20T07:58:42;36.10;;;11.17;;
19043;SDS011;9654;52.302;8.120;2023-12-20T08:01:10;26.00;;;8.07;;
19043;SDS011;9654;52.302;8.120;2023-12-20T08:03:39;55.33;;;14.77;;
19043;SDS011;9654;52.302;8.120;2023-12-20T08:06:06;39.10;;;11.33;;
19043;SDS011;9654;52.302;8.120;2023-12-20T08:08:33;25.27;;;8.63;;
19043;SDS011;9654;52.302;8.120;2023-12-20T08:11:00;28.93;;;6.20;;
19043;SDS011;9654;52.302;8.120;2023-12-20T08:13:27;37.93;;;9.27;;
19043;SDS011;9654;52.302;8.120;2023-12-20T08:15:54;39.47;;;8.60;;
19043;SDS011;9654;52.302;8.120;2023-12-20T08:18:22;39.27;;;14.83;;
19043;SDS011;9654;52.302;8.120;2023-12-20T08:20:50;41.53;;;14.80;;
19043;SDS011;9654;52.302;8.120;2023-12-20T08:23:18;28.37;;;9.33;;
19043;SDS011;9654;52.302;8.120;2023-12-20T08:25:45;16.93;;;5.07;;
19043;SDS011;9654;52.302;8.120;2023-12-20T08:28:13;21.40;;;5.07;;
19043;SDS011;9654;52.302;8.120;2023-12-20T08:30:40;20.83;;;3.47;;
19043;SDS011;9654;52.302;8.120;2023-12-20T08:33:06;24.23;;;4.03;;
19043;SDS011;9654;52.302;8.120;2023-12-20T08:35:36;20.07;;;3.97;;
19043;SDS011;9654;52.302;8.120;2023-12-20T08:38:04;15.70;;;4.40;;
19043;SDS011;9654;52.302;8.120;2023-12-20T08:40:31;21.23;;;3.60;;
19043;SDS011;9654;52.302;8.120;2023-12-20T08:42:58;25.93;;;4.70;;
19043;SDS011;9654;52.302;8.120;2023-12-20T08:45:25;21.20;;;4.60;;
19043;SDS011;9654;52.302;8.120;2023-12-20T08:47:52;17.17;;;4.23;;
19043;SDS011;9654;52.302;8.120;2023-12-20T08:50:18;24.23;;;3.90;;
19043;SDS011;9654;52.302;8.120;2023-12-20T08:52:45;32.00;;;5.73;;
19043;SDS011;9654;52.302;8.120;2023-12-20T08:55:14;22.20;;;4.63;;
19043;SDS011;9654;52.302;8.120;2023-12-20T08:57:43;18.77;;;4.10;;
19043;SDS011;9654;52.302;8.120;2023-12-20T09:00:10;14.70;;;3.53;;
19043;SDS011;9654;52.302;8.120;2023-12-20T09:02:38;21.93;;;6.00;;
19043;SDS011;9654;52.302;8.120;2023-12-20T09:05:05;27.43;;;4.77;;
19043;SDS011;9654;52.302;8.120;2023-12-20T09:07:32;13.30;;;3.60;;
19043;SDS011;9654;52.302;8.120;2023-12-20T09:09:59;18.77;;;3.70;;
19043;SDS011;9654;52.302;8.120;2023-12-20T09:12:27;16.63;;;4.20;;
19043;SDS011;9654;52.302;8.120;2023-12-20T09:14:54;21.87;;;4.17;;
19043;SDS011;9654;52.302;8.120;2023-12-20T09:17:21;23.10;;;4.90;;
19043;SDS011;9654;52.302;8.120;2023-12-20T09:19:48;18.83;;;3.67;;
19043;SDS011;9654;52.302;8.120;2023-12-20T09:22:17;21.30;;;3.87;;
19043;SDS011;9654;52.302;8.120;2023-12-20T09:24:43;18.47;;;4.10;;
19043;SDS011;9654;52.302;8.120;2023-12-20T09:27:10;19.90;;;4.70;;
19043;SDS011;9654;52.302;8.120;2023-12-20T09:29:38;21.13;;;5.70;;
19043;SDS011;9654;52.302;8.120;2023-12-20T09:32:05;19.83;;;5.33;;
19043;SDS011;9654;52.302;8.120;2023-12-20T09:34:33;16.50;;;3.70;;
19043;SDS011;9654;52.302;8.120;2023-12-20T09:37:00;15.47;;;4.60;;
19043;SDS011;9654;52.302;8.120;2023-12-20T09:39:28;21.43;;;4.37;;
19043;SDS011;9654;52.302;8.120;2023-12-20T09:41:59;27.03;;;5.50;;
19043;SDS011;9654;52.302;8.120;2023-12-20T09:44:27;18.50;;;4.40;;
19043;SDS011;9654;52.302;8.120;2023-12-20T09:46:56;21.07;;;4.77;;
19043;SDS011;9654;52.302;8.120;2023-12-20T09:49:23;26.70;;;6.73;;
19043;SDS011;9654;52.302;8.120;2023-12-20T09:51:53;23.97;;;5.03;;
19043;SDS011;9654;52.302;8.120;2023-12-20T09:54:21;18.43;;;4.63;;
19043;SDS011;9654;52.302;8.120;2023-12-20T09:56:48;22.47;;;4.73;;
19043;SDS011;9654;52.302;8.120;2023-12-20T09:59:16;18.43;;;4.80;;
19043;SDS011;9654;52.302;8.120;2023-12-20T10:01:43;15.57;;;4.07;;
19043;SDS011;9654;52.302;8.120;2023-12-20T10:04:12;19.03;;;5.17;;
19043;SDS011;9654;52.302;8.120;2023-12-20T10:06:39;23.37;;;5.80;;
19043;SDS011;9654;52.302;8.120;2023-12-20T10:09:06;16.87;;;4.53;;
19043;SDS011;9654;52.302;8.120;2023-12-20T10:11:34;21.60;;;5.30;;
19043;SDS011;9654;52.302;8.120;2023-12-20T10:14:02;23.03;;;5.37;;
19043;SDS011;9654;52.302;8.120;2023-12-20T10:16:29;26.37;;;5.40;;
19043;SDS011;9654;52.302;8.120;2023-12-20T10:18:58;26.40;;;6.07;;
19043;SDS011;9654;52.302;8.120;2023-12-20T10:21:27;21.83;;;4.80;;
19043;SDS011;9654;52.302;8.120;2023-12-20T10:23:54;34.90;;;12.57;;
19043;SDS011;9654;52.302;8.120;2023-12-20T10:26:21;31.97;;;9.97;;
19043;SDS011;9654;52.302;8.120;2023-12-20T10:28:50;47.40;;;17.70;;
19043;SDS011;9654;52.302;8.120;2023-12-20T10:31:27;31.17;;;12.57;;
19043;SDS011;9654;52.302;8.120;2023-12-20T10:33:56;22.13;;;6.47;;
19043;SDS011;9654;52.302;8.120;2023-12-20T10:36:25;20.00;;;6.83;;
19043;SDS011;9654;52.302;8.120;2023-12-20T10:38:54;15.97;;;5.30;;
19043;SDS011;9654;52.302;8.120;2023-12-20T10:41:25;14.43;;;4.83;;
19043;SDS011;9654;52.302;8.120;2023-12-20T10:43:54;16.00;;;6.00;;
19043;SDS011;9654;52.302;8.120;2023-12-20T10:46:24;21.23;;;5.87;;
19043;SDS011;9654;52.302;8.120;2023-12-20T10:48:53;11.67;;;3.37;;
19043;SDS011;9654;52.302;8.120;2023-12-20T10:51:20;12.17;;;3.43;;
19043;SDS011;9654;52.302;8.120;2023-12-20T10:53:49;18.40;;;3.20;;
19043;SDS011;9654;52.302;8.120;2023-12-20T10:56:18;10.30;;;3.40;;
19043;SDS011;9654;52.302;8.120;2023-12-20T10:58:46;12.40;;;3.47;;
19043;SDS011;9654;52.302;8.120;2023-12-20T11:01:14;13.07;;;4.10;;
19043;SDS011;9654;52.302;8.120;2023-12-20T11:03:43;10.13;;;3.67;;
19043;SDS011;9654;52.302;8.120;2023-12-20T11:06:19;13.50;;;4.93;;
19043;SDS011;9654;52.302;8.120;2023-12-20T11:08:55;12.67;;;3.27;;
19043;SDS011;9654;52.302;8.120;2023-12-20T11:11:37;16.23;;;3.97;;
19043;SDS011;9654;52.302;8.120;2023-12-20T11:14:15;20.73;;;4.50;;
19043;SDS011;9654;52.302;8.120;2023-12-20T11:16:46;15.03;;;4.20;;
19043;SDS011;9654;52.302;8.120;2023-12-20T11:19:13;19.97;;;4.47;;
19043;SDS011;9654;52.302;8.120;2023-12-20T11:21:40;19.13;;;3.10;;
19043;SDS011;9654;52.302;8.120;2023-12-20T11:24:07;13.80;;;3.77;;
19043;SDS011;9654;52.302;8.120;2023-12-20T11:26:37;14.10;;;3.53;;
19043;SDS011;9654;52.302;8.120;2023-12-20T11:29:29;20.90;;;3.67;;
19043;SDS011;9654;52.302;8.120;2023-12-20T11:31:59;28.27;;;4.50;;
19043;SDS011;9654;52.302;8.120;2023-12-20T11:34:27;25.10;;;10.17;;
19043;SDS011;9654;52.302;8.120;2023-12-20T11:36:58;33.30;;;13.60;;
19043;SDS011;9654;52.302;8.120;2023-12-20T11:39:26;34.20;;;15.93;;
19043;SDS011;9654;52.302;8.120;2023-12-20T11:41:55;20.03;;;4.83;;
19043;SDS011;9654;52.302;8.120;2023-12-20T11:44:25;21.73;;;8.23;;
19043;SDS011;9654;52.302;8.120;2023-12-20T11:46:52;15.33;;;3.77;;
19043;SDS011;9654;52.302;8.120;2023-12-20T11:49:22;27.17;;;6.77;;
19043;SDS011;9654;52.302;8.120;2023-12-20T11:51:51;14.03;;;3.57;;
19043;SDS011;9654;52.302;8.120;2023-12-20T11:54:26;21.87;;;7.37;;
19043;SDS011;9654;52.302;8.120;2023-12-20T11:56:57;23.30;;;7.50;;
19043;SDS011;9654;52.302;8.120;2023-12-20T11:59:24;14.07;;;4.70;;
19043;SDS011;9654;52.302;8.120;2023-12-20T12:01:52;14.73;;;5.47;;
19043;SDS011;9654;52.302;8.120;2023-12-20T12:04:21;7.00;;;1.87;;
19043;SDS011;9654;52.302;8.120;2023-12-20T12:06:48;16.00;;;4.80;;
19043;SDS011;9654;52.302;8.120;2023-12-20T12:09:15;10.33;;;3.57;;
19043;SDS011;9654;52.302;8.120;2023-12-20T12:11:42;14.33;;;4.73;;
19043;SDS011;9654;52.302;8.120;2023-12-20T12:14:13;6.87;;;2.20;;
19043;SDS011;9654;52.302;8.120;2023-12-20T12:16:41;5.03;;;2.30;;
19043;SDS011;9654;52.302;8.120;2023-12-20T12:19:14;5.50;;;2.23;;
19043;SDS011;9654;52.302;8.120;2023-12-20T12:21:46;5.57;;;1.97;;
19043;SDS011;9654;52.302;8.120;2023-12-20T12:24:13;7.90;;;2.90;;
19043;SDS011;9654;52.302;8.120;2023-12-20T12:26:40;5.43;;;1.63;;
19043;SDS011;9654;52.302;8.120;2023-12-20T12:29:07;4.40;;;1.90;;
19043;SDS011;9654;52.302;8.120;2023-12-20T12:31:36;6.93;;;1.83;;
19043;SDS011;9654;52.302;8.120;2023-12-20T12:34:03;6.10;;;2.13;;
19043;SDS011;9654;52.302;8.120;2023-12-20T12:36:30;7.37;;;3.60;;
19043;SDS011;9654;52.302;8.120;2023-12-20T12:38:57;4.20;;;1.50;;
19043;SDS011;9654;52.302;8.120;2023-12-20T12:41:24;3.70;;;1.83;;
19043;SDS011;9654;52.302;8.120;2023-12-20T12:43:51;7.70;;;2.80;;
19043;SDS011;9654;52.302;8.120;2023-12-20T12:46:18;7.23;;;2.13;;
19043;SDS011;9654;52.302;8.120;2023-12-20T12:48:46;7.23;;;2.20;;
19043;SDS011;9654;52.302;8.120;2023-12-20T12:51:14;9.73;;;2.43;;
19043;SDS011;9654;52.302;8.120;2023-12-20T12:53:41;9.80;;;2.23;;
19043;SDS011;9654;52.302;8.120;2023-12-20T12:56:10;10.03;;;2.57;;
19043;SDS011;9654;52.302;8.120;2023-12-20T12:58:39;13.23;;;3.83;;
19043;SDS011;9654;52.302;8.120;2023-12-20T13:01:06;13.00;;;2.17;;
19043;SDS011;9654;52.302;8.120;2023-12-20T13:03:33;4.43;;;1.77;;
19043;SDS011;9654;52.302;8.120;2023-12-20T13:06:02;8.17;;;2.57;;
19043;SDS011;9654;52.302;8.120;2023-12-20T13:08:31;11.73;;;2.53;;
19043;SDS011;9654;52.302;8.120;2023-12-20T13:10:58;9.43;;;2.07;;
19043;SDS011;9654;52.302;8.120;2023-12-20T13:13:25;9.70;;;2.17;;
19043;SDS011;9654;52.302;8.120;2023-12-20T13:15:53;11.03;;;2.20;;
19043;SDS011;9654;52.302;8.120;2023-12-20T13:18:20;8.07;;;2.20;;
19043;SDS011;9654;52.302;8.120;2023-12-20T13:20:47;15.67;;;4.47;;
19043;SDS011;9654;52.302;8.120;2023-12-20T13:23:16;13.07;;;3.60;;
19043;SDS011;9654;52.302;8.120;2023-12-20T13:25:43;9.10;;;2.10;;
19043;SDS011;9654;52.302;8.120;2023-12-20T13:28:11;7.00;;;2.80;;
19043;SDS011;9654;52.302;8.120;2023-12-20T13:30:38;11.43;;;3.47;;
19043;SDS011;9654;52.302;8.120;2023-12-20T13:33:05;6.47;;;1.70;;
19043;SDS011;9654;52.302;8.120;2023-12-20T13:35:32;15.40;;;3.63;;
19043;SDS011;9654;52.302;8.120;2023-12-20T13:38:00;8.13;;;2.27;;
19043;SDS011;9654;52.302;8.120;2023-12-20T13:40:28;9.10;;;2.33;;
19043;SDS011;9654;52.302;8.120;2023-12-20T13:42:55;7.93;;;2.13;;
19043;SDS011;9654;52.302;8.120;2023-12-20T13:45:22;7.37;;;2.47;;
19043;SDS011;9654;52.302;8.120;2023-12-20T13:47:50;5.10;;;1.77;;
19043;SDS011;9654;52.302;8.120;2023-12-20T13:50:17;8.73;;;2.50;;
19043;SDS011;9654;52.302;8.120;2023-12-20T13:52:44;7.63;;;1.87;;
19043;SDS011;9654;52.302;8.120;2023-12-20T13:55:11;11.57;;;1.97;;
19043;SDS011;9654;52.302;8.120;2023-12-20T13:57:39;11.57;;;1.70;;
19043;SDS011;9654;52.302;8.120;2023-12-20T14:00:07;8.63;;;2.07;;
19043;SDS011;9654;52.302;8.120;2023-12-20T14:02:39;10.43;;;1.90;;
19043;SDS011;9654;52.302;8.120;2023-12-20T14:05:07;11.27;;;1.60;;
19043;SDS011;9654;52.302;8.120;2023-12-20T14:07:35;7.77;;;1.70;;
19043;SDS011;9654;52.302;8.120;2023-12-20T14:10:02;10.50;;;1.70;;
19043;SDS011;9654;52.302;8.120;2023-12-20T14:12:30;7.60;;;1.73;;
19043;SDS011;9654;52.302;8.120;2023-12-20T14:15:02;4.77;;;1.90;;
19043;SDS011;9654;52.302;8.120;2023-12-20T14:17:32;7.37;;;1.97;;
19043;SDS011;9654;52.302;8.120;2023-12-20T14:19:59;11.73;;;2.53;;
19043;SDS011;9654;52.302;8.120;2023-12-20T14:22:27;8.50;;;3.03;;
19043;SDS011;9654;52.302;8.120;2023-12-20T14:24:54;11.37;;;3.03;;
19043;SDS011;9654;52.302;8.120;2023-12-20T14:27:22;12.03;;;3.03;;
19043;SDS011;9654;52.302;8.120;2023-12-20T14:29:49;6.27;;;2.27;;
19043;SDS011;9654;52.302;8.120;2023-12-20T14:32:18;10.90;;;2.57;;
19043;SDS011;9654;52.302;8.120;2023-12-20T14:34:45;11.40;;;3.73;;
19043;SDS011;9654;52.302;8.120;2023-12-20T14:37:11;9.40;;;1.90;;
19043;SDS011;9654;52.302;8.120;2023-12-20T14:39:39;11.90;;;1.37;;
19043;SDS011;9654;52.302;8.120;2023-12-20T14:42:06;11.13;;;4.60;;
19043;SDS011;9654;52.302;8.120;2023-12-20T14:44:37;9.27;;;3.03;;
19043;SDS011;9654;52.302;8.120;2023-12-20T14:47:04;10.10;;;2.10;;
19043;SDS011;9654;52.302;8.120;2023-12-20T14:49:32;9.73;;;2.43;;
19043;SDS011;9654;52.302;8.120;2023-12-20T14:52:00;7.47;;;2.40;;
19043;SDS011;9654;52.302;8.120;2023-12-20T14:54:27;7.17;;;2.20;;
19043;SDS011;9654;52.302;8.120;2023-12-20T14:56:54;7.37;;;1.70;;